createdAt,value
2017-08-04T00:00:18.034Z,20.20
2017-08-04T00:02:45.481Z,20.20
2017-08-04T00:05:13.062Z,20.20
2017-08-04T00:07:40.625Z,20.20
2017-08-04T00:10:08.278Z,20.20
2017-08-04T00:12:35.984Z,20.20
2017-08-04T00:15:03.631Z,20.10
2017-08-04T00:17:31.794Z,20.00
2017-08-04T00:20:00.220Z,20.00
2017-08-04T00:22:27.973Z,20.00
2017-08-04T00:24:55.627Z,20.00
2017-08-04T00:27:23.203Z,20.00
2017-08-04T00:29:50.780Z,20.00
2017-08-04T00:32:18.420Z,20.00
2017-08-04T00:34:45.950Z,20.00
2017-08-04T00:37:13.603Z,20.10
2017-08-04T00:39:41.139Z,20.10
2017-08-04T00:42:08.734Z,20.00
2017-08-04T00:44:36.264Z,20.00
2017-08-04T00:47:03.748Z,20.00
2017-08-04T00:49:31.328Z,19.90
2017-08-04T00:51:58.824Z,19.90
2017-08-04T00:54:26.739Z,19.90
2017-08-04T00:57:00.114Z,19.90
2017-08-04T00:59:28.567Z,19.90
2017-08-04T01:04:32.838Z,19.90
2017-08-04T01:07:04.338Z,19.80
2017-08-04T01:09:31.809Z,19.80
2017-08-04T01:11:59.374Z,19.80
2017-08-04T01:14:26.901Z,19.70
2017-08-04T01:16:54.444Z,19.70
2017-08-04T01:19:23.383Z,19.60
2017-08-04T01:21:50.864Z,19.60
2017-08-04T01:24:18.320Z,19.60
2017-08-04T01:26:46.026Z,19.60
2017-08-04T01:29:13.585Z,19.60
2017-08-04T01:31:41.171Z,19.70
2017-08-04T01:34:08.880Z,19.70
2017-08-04T01:36:36.742Z,19.70
2017-08-04T01:39:04.195Z,19.70
2017-08-04T01:41:31.928Z,19.60
2017-08-04T01:43:59.392Z,19.60
2017-08-04T01:46:26.941Z,19.60
2017-08-04T01:48:54.436Z,19.50
2017-08-04T01:51:23.043Z,19.50
2017-08-04T01:53:50.756Z,19.40
2017-08-04T01:56:18.262Z,19.40
2017-08-04T01:58:45.811Z,19.40
2017-08-04T02:01:14.071Z,19.40
2017-08-04T02:03:41.893Z,19.40
2017-08-04T02:06:09.499Z,19.30
2017-08-04T02:08:37.097Z,19.30
2017-08-04T02:11:04.752Z,19.30
2017-08-04T02:13:33.000Z,19.30
2017-08-04T02:16:00.660Z,19.30
2017-08-04T02:18:28.271Z,19.30
2017-08-04T02:20:55.862Z,19.30
2017-08-04T02:23:23.755Z,19.40
2017-08-04T02:25:51.612Z,19.40
2017-08-04T02:28:19.047Z,19.30
2017-08-04T02:30:46.525Z,19.40
2017-08-04T02:33:14.067Z,19.40
2017-08-04T02:35:41.626Z,19.40
2017-08-04T02:38:09.140Z,19.40
2017-08-04T02:40:36.655Z,19.40
2017-08-04T02:43:04.117Z,19.50
2017-08-04T02:45:31.602Z,19.40
2017-08-04T02:47:59.079Z,19.40
2017-08-04T02:50:26.517Z,19.30
2017-08-04T02:52:54.812Z,19.40
2017-08-04T02:55:22.375Z,19.40
2017-08-04T02:57:51.109Z,19.40
2017-08-04T03:00:18.625Z,19.40
2017-08-04T03:02:46.120Z,19.40
2017-08-04T03:05:13.732Z,19.40
2017-08-04T03:07:41.490Z,19.40
2017-08-04T03:10:08.986Z,19.40
2017-08-04T03:12:36.447Z,19.40
2017-08-04T03:15:03.923Z,19.50
2017-08-04T03:17:31.522Z,19.50
2017-08-04T03:19:59.043Z,19.50
2017-08-04T03:22:26.575Z,19.50
2017-08-04T03:24:54.974Z,19.50
2017-08-04T03:27:22.520Z,19.40
2017-08-04T03:29:50.038Z,19.50
2017-08-04T03:32:17.530Z,19.50
2017-08-04T03:34:45.025Z,19.50
2017-08-04T03:37:12.561Z,19.50
2017-08-04T03:39:40.127Z,19.50
2017-08-04T03:42:07.593Z,19.40
2017-08-04T03:44:35.051Z,19.40
2017-08-04T03:47:02.614Z,19.50
2017-08-04T03:49:30.104Z,19.40
2017-08-04T03:51:57.558Z,19.50
2017-08-04T03:54:25.278Z,19.50
2017-08-04T03:56:52.839Z,19.50
2017-08-04T03:59:20.326Z,19.50
2017-08-04T04:01:47.837Z,19.50
2017-08-04T04:04:15.311Z,19.40
2017-08-04T04:06:42.986Z,19.40
2017-08-04T04:09:10.464Z,19.50
2017-08-04T04:11:38.002Z,19.50
2017-08-04T04:14:05.650Z,19.50
2017-08-04T04:16:33.318Z,19.50
2017-08-04T04:19:00.783Z,19.50
2017-08-04T04:21:28.477Z,19.50
2017-08-04T04:23:55.995Z,19.50
2017-08-04T04:26:23.583Z,19.50
2017-08-04T04:28:51.025Z,19.50
2017-08-04T04:31:19.209Z,19.60
2017-08-04T04:33:46.675Z,19.50
2017-08-04T04:36:14.196Z,19.60
2017-08-04T04:38:41.751Z,19.60
2017-08-04T04:41:09.356Z,19.50
2017-08-04T04:43:40.469Z,19.50
2017-08-04T04:46:08.748Z,19.50
2017-08-04T04:48:36.312Z,19.60
2017-08-04T04:51:04.105Z,19.60
2017-08-04T04:53:31.642Z,19.70
2017-08-04T04:55:59.255Z,19.60
2017-08-04T04:58:28.801Z,19.60
2017-08-04T05:00:57.937Z,19.60
2017-08-04T05:03:25.555Z,19.60
2017-08-04T05:05:53.021Z,19.70
2017-08-04T05:08:23.654Z,19.60
2017-08-04T05:10:55.448Z,19.60
2017-08-04T05:13:23.048Z,19.70
2017-08-04T05:15:51.555Z,19.70
2017-08-04T05:18:20.230Z,19.80
2017-08-04T05:20:47.724Z,19.80
2017-08-04T05:23:15.520Z,19.70
2017-08-04T05:25:43.683Z,19.70
2017-08-04T05:28:11.289Z,19.70
2017-08-04T05:30:38.967Z,19.80
2017-08-04T05:33:06.411Z,19.90
2017-08-04T05:35:33.960Z,19.90
2017-08-04T05:38:01.596Z,19.80
2017-08-04T05:40:29.353Z,19.80
2017-08-04T05:42:58.221Z,19.80
2017-08-04T05:45:25.836Z,19.80
2017-08-04T05:47:53.423Z,19.80
2017-08-04T05:50:22.545Z,19.60
2017-08-04T05:52:50.128Z,19.60
2017-08-04T05:55:17.719Z,19.80
2017-08-04T06:00:22.077Z,20.10
2017-08-04T06:02:49.653Z,20.20
2017-08-04T06:05:17.312Z,20.30
2017-08-04T06:07:44.858Z,20.30
2017-08-04T06:10:15.003Z,20.40
2017-08-04T06:12:42.474Z,20.30
2017-08-04T06:15:10.015Z,20.20
2017-08-04T06:17:37.569Z,20.30
2017-08-04T06:20:05.085Z,20.50
2017-08-04T06:22:32.693Z,20.30
2017-08-04T06:25:02.399Z,20.20
2017-08-04T06:27:30.287Z,20.30
2017-08-04T06:29:57.914Z,20.40
2017-08-04T06:32:30.189Z,20.60
2017-08-04T06:34:57.796Z,20.70
2017-08-04T06:37:25.485Z,20.70
2017-08-04T06:39:56.018Z,20.70
2017-08-04T06:45:06.476Z,20.80
2017-08-04T06:47:35.608Z,20.90
2017-08-04T06:50:16.698Z,21.00
2017-08-04T06:53:06.656Z,21.00
2017-08-04T06:55:46.061Z,21.00
2017-08-04T06:58:14.814Z,21.10
2017-08-04T07:00:42.423Z,21.30
2017-08-04T07:03:09.881Z,21.50
2017-08-04T07:05:37.336Z,21.90
2017-08-04T07:08:05.348Z,22.10
2017-08-04T07:10:33.319Z,22.70
2017-08-04T07:13:02.601Z,23.40
2017-08-04T07:15:33.211Z,23.70
2017-08-04T07:18:01.259Z,23.60
2017-08-04T07:20:28.720Z,23.60
2017-08-04T07:22:59.469Z,23.30
2017-08-04T07:25:28.161Z,23.40
2017-08-04T07:27:59.052Z,23.20
2017-08-04T07:30:28.331Z,22.60
2017-08-04T07:32:58.823Z,22.60
2017-08-04T07:35:26.726Z,22.50
2017-08-04T07:37:54.384Z,22.10
2017-08-04T07:40:25.084Z,22.00
2017-08-04T07:42:52.718Z,21.90
2017-08-04T07:45:35.588Z,21.80
2017-08-04T07:48:04.145Z,21.90
2017-08-04T07:50:42.688Z,22.10
2017-08-04T07:53:14.803Z,22.30
2017-08-04T07:58:35.086Z,22.40
2017-08-04T08:01:05.233Z,22.40
2017-08-04T08:03:33.869Z,22.40
2017-08-04T08:06:06.051Z,22.70
2017-08-04T08:08:35.947Z,22.90
2017-08-04T08:11:07.651Z,22.80
2017-08-04T08:13:39.667Z,23.00
2017-08-04T08:18:55.156Z,22.90
2017-08-04T08:21:24.731Z,23.30
2017-08-04T08:23:53.458Z,23.30
2017-08-04T08:26:21.070Z,23.50
2017-08-04T08:28:49.981Z,24.10
2017-08-04T08:31:19.103Z,24.70
2017-08-04T08:33:47.744Z,24.80
2017-08-04T08:36:16.967Z,25.60
2017-08-04T08:38:48.254Z,25.50
2017-08-04T08:41:15.819Z,25.50
2017-08-04T08:43:43.416Z,25.20
2017-08-04T08:46:10.877Z,24.50
2017-08-04T08:48:38.566Z,25.20
2017-08-04T08:51:06.275Z,25.60
2017-08-04T08:53:36.260Z,25.20
2017-08-04T08:56:04.529Z,24.80
2017-08-04T08:58:33.932Z,24.50
2017-08-04T09:01:10.964Z,24.40
2017-08-04T09:03:38.613Z,24.40
2017-08-04T09:06:06.749Z,24.50
2017-08-04T09:08:37.421Z,24.30
2017-08-04T09:11:05.573Z,24.20
2017-08-04T09:13:33.597Z,24.20
2017-08-04T09:16:01.439Z,24.40
2017-08-04T09:18:30.478Z,24.40
2017-08-04T09:20:57.952Z,24.20
2017-08-04T09:23:25.645Z,24.40
2017-08-04T09:25:53.223Z,24.50
2017-08-04T09:28:20.854Z,24.70
2017-08-04T09:30:49.117Z,25.20
2017-08-04T09:33:20.250Z,26.20
2017-08-04T09:35:48.698Z,26.20
2017-08-04T09:38:17.919Z,27.00
2017-08-04T09:40:49.380Z,28.10
2017-08-04T09:43:17.664Z,28.40
2017-08-04T09:45:45.208Z,28.80
2017-08-04T09:48:13.574Z,28.10
2017-08-04T09:50:41.271Z,27.70
2017-08-04T09:53:09.805Z,27.40
2017-08-04T09:55:41.700Z,26.20
2017-08-04T09:58:09.512Z,26.20
2017-08-04T10:00:37.069Z,25.70
2017-08-04T10:03:06.573Z,25.10
2017-08-04T10:05:38.728Z,24.80
2017-08-04T10:08:06.449Z,24.70
2017-08-04T10:10:36.689Z,24.50
2017-08-04T10:13:05.211Z,24.40
2017-08-04T10:15:33.439Z,24.40
2017-08-04T10:18:02.309Z,24.60
2017-08-04T10:20:29.879Z,24.90
2017-08-04T10:22:59.262Z,24.90
2017-08-04T10:25:35.833Z,24.90
2017-08-04T10:28:03.315Z,24.70
2017-08-04T10:33:11.011Z,24.30
2017-08-04T10:35:38.639Z,24.20
2017-08-04T10:38:07.736Z,24.30
2017-08-04T10:40:35.356Z,24.10
2017-08-04T10:43:03.936Z,24.30
2017-08-04T10:45:33.289Z,24.50
2017-08-04T10:48:01.179Z,24.50
2017-08-04T10:50:28.965Z,24.40
2017-08-04T10:52:56.444Z,24.40
2017-08-04T10:55:24.264Z,24.50
2017-08-04T10:57:59.742Z,24.40
2017-08-04T11:03:13.617Z,24.40
2017-08-04T11:05:41.204Z,24.60
2017-08-04T11:08:10.163Z,24.60
2017-08-04T11:10:40.466Z,24.60
2017-08-04T11:13:12.849Z,24.50
2017-08-04T11:15:40.350Z,24.60
2017-08-04T11:18:07.879Z,24.80
2017-08-04T11:20:35.536Z,25.00
2017-08-04T11:23:05.269Z,24.90
2017-08-04T11:25:36.552Z,24.90
2017-08-04T11:28:04.144Z,24.50
2017-08-04T11:30:31.851Z,24.50
2017-08-04T11:33:00.865Z,24.40
2017-08-04T11:35:30.781Z,24.60
2017-08-04T11:37:58.921Z,24.50
2017-08-04T11:40:27.264Z,25.00
2017-08-04T11:42:54.938Z,25.00
2017-08-04T11:45:24.647Z,24.90
2017-08-04T11:47:52.127Z,25.00
2017-08-04T11:50:20.100Z,25.10
2017-08-04T11:55:24.368Z,24.80
2017-08-04T11:57:52.070Z,24.30
2017-08-04T12:00:19.569Z,24.20
2017-08-04T12:02:48.100Z,24.20
2017-08-04T12:05:15.676Z,24.40
2017-08-04T12:07:43.162Z,24.80
2017-08-04T12:10:10.674Z,24.90
2017-08-04T12:12:39.544Z,24.90
2017-08-04T12:15:09.333Z,24.80
2017-08-04T12:17:37.853Z,24.80
2017-08-04T12:20:05.425Z,25.00
2017-08-04T12:22:33.117Z,24.80
2017-08-04T12:25:01.362Z,25.00
2017-08-04T12:27:28.949Z,25.00
2017-08-04T12:29:56.573Z,24.80
2017-08-04T12:32:24.140Z,24.60
2017-08-04T12:34:53.246Z,24.70
2017-08-04T12:37:21.139Z,24.70
2017-08-04T12:39:49.428Z,24.80
2017-08-04T12:42:17.075Z,24.80
2017-08-04T12:44:44.530Z,24.50
2017-08-04T12:47:12.113Z,24.50
2017-08-04T12:49:39.597Z,24.50
2017-08-04T12:52:07.342Z,24.20
2017-08-04T12:54:35.785Z,24.00
2017-08-04T12:57:03.335Z,24.10
2017-08-04T12:59:35.931Z,24.40
2017-08-04T13:02:03.628Z,24.40
2017-08-04T13:04:32.826Z,24.50
2017-08-04T13:07:00.291Z,24.50
2017-08-04T13:09:30.117Z,24.60
2017-08-04T13:11:57.836Z,24.60
2017-08-04T13:14:25.420Z,24.60
2017-08-04T13:16:53.072Z,24.50
2017-08-04T13:19:21.435Z,24.30
2017-08-04T13:21:50.094Z,24.30
2017-08-04T13:24:17.681Z,24.40
2017-08-04T13:26:45.220Z,24.40
2017-08-04T13:29:13.019Z,24.20
2017-08-04T13:31:40.703Z,24.10
2017-08-04T13:34:08.337Z,24.00
2017-08-04T13:36:35.935Z,24.00
2017-08-04T13:39:03.769Z,24.10
2017-08-04T13:41:32.955Z,24.10
2017-08-04T13:44:01.844Z,24.30
2017-08-04T13:46:29.410Z,24.30
2017-08-04T13:48:56.862Z,24.30
2017-08-04T13:51:25.668Z,24.50
2017-08-04T13:53:53.183Z,24.60
2017-08-04T13:56:20.699Z,24.70
2017-08-04T13:58:48.180Z,24.60
2017-08-04T14:01:15.966Z,24.60
2017-08-04T14:03:43.503Z,24.50
2017-08-04T14:06:11.047Z,24.50
2017-08-04T14:08:38.828Z,24.50
2017-08-04T14:11:06.362Z,24.60
2017-08-04T14:13:34.645Z,24.80
2017-08-04T14:16:02.184Z,24.80
2017-08-04T14:18:30.470Z,24.80
2017-08-04T14:20:58.723Z,24.80
2017-08-04T14:23:26.263Z,24.80
2017-08-04T14:25:53.757Z,24.70
2017-08-04T14:28:21.274Z,24.90
2017-08-04T14:30:49.429Z,24.90
2017-08-04T14:33:17.093Z,24.70
2017-08-04T14:35:44.618Z,24.60
2017-08-04T14:38:12.176Z,24.70
2017-08-04T14:40:39.905Z,24.60
2017-08-04T14:43:08.027Z,24.80
2017-08-04T14:45:35.904Z,24.70
2017-08-04T14:48:03.421Z,24.60
2017-08-04T14:50:31.084Z,24.70
2017-08-04T14:52:58.616Z,24.70
2017-08-04T14:55:26.113Z,24.70
2017-08-04T14:57:53.591Z,24.70
2017-08-04T15:00:21.169Z,24.60
2017-08-04T15:02:49.049Z,24.20
2017-08-04T15:05:16.528Z,24.30
2017-08-04T15:07:44.001Z,24.30
2017-08-04T15:10:11.598Z,24.30
2017-08-04T15:12:39.059Z,24.40
2017-08-04T15:15:07.084Z,24.40
2017-08-04T15:17:34.671Z,24.30
2017-08-04T15:20:02.207Z,24.10
2017-08-04T15:22:29.886Z,24.10
2017-08-04T15:24:57.436Z,24.10
2017-08-04T15:27:25.784Z,24.10
2017-08-04T15:29:53.355Z,24.00
2017-08-04T15:32:22.703Z,24.10
2017-08-04T15:34:50.218Z,24.20
2017-08-04T15:37:17.859Z,24.50
2017-08-04T15:39:46.912Z,24.60
2017-08-04T15:42:14.750Z,24.70
2017-08-04T15:44:42.460Z,24.70
2017-08-04T15:49:46.808Z,24.70
2017-08-04T15:52:14.504Z,24.80
2017-08-04T15:54:42.392Z,24.70
2017-08-04T15:57:10.101Z,24.60
2017-08-04T15:59:37.640Z,24.50
2017-08-04T16:02:05.457Z,24.40
2017-08-04T16:04:33.223Z,24.30
2017-08-04T16:07:00.819Z,24.10
2017-08-04T16:09:30.818Z,24.10
2017-08-04T16:11:59.021Z,24.10
2017-08-04T16:14:28.664Z,24.10
2017-08-04T16:16:57.229Z,24.10
2017-08-04T16:19:24.739Z,24.00
2017-08-04T16:21:53.177Z,24.00
2017-08-04T16:24:20.875Z,24.10
2017-08-04T16:26:48.901Z,24.20
2017-08-04T16:29:16.382Z,24.00
2017-08-04T16:31:52.904Z,24.00
2017-08-04T16:34:21.869Z,24.10
2017-08-04T16:36:53.888Z,24.20
2017-08-04T16:39:23.904Z,24.10
2017-08-04T16:41:51.479Z,23.90
2017-08-04T16:44:19.191Z,23.80
2017-08-04T16:46:46.713Z,23.80
2017-08-04T16:49:14.855Z,23.80
2017-08-04T16:51:43.335Z,23.70
2017-08-04T16:54:10.996Z,23.60
2017-08-04T16:56:41.687Z,23.60
2017-08-04T16:59:09.296Z,23.50
2017-08-04T17:01:36.970Z,23.50
2017-08-04T17:04:04.480Z,23.50
2017-08-04T17:06:35.790Z,23.40
2017-08-04T17:09:03.388Z,23.40
2017-08-04T17:11:30.933Z,23.40
2017-08-04T17:14:10.167Z,23.50
2017-08-04T17:16:37.950Z,23.50
2017-08-04T17:19:05.591Z,23.40
2017-08-04T17:21:33.273Z,23.40
2017-08-04T17:24:00.866Z,23.30
2017-08-04T17:26:28.550Z,23.20
2017-08-04T17:28:56.260Z,23.10
2017-08-04T17:31:25.899Z,23.10
2017-08-04T17:33:55.975Z,23.10
2017-08-04T17:36:25.661Z,23.10
2017-08-04T17:38:59.094Z,23.20
2017-08-04T17:41:29.090Z,23.30
2017-08-04T17:44:00.340Z,23.30
2017-08-04T17:46:46.868Z,23.20
2017-08-04T17:49:15.301Z,23.10
2017-08-04T17:51:45.068Z,23.10
2017-08-04T17:56:50.139Z,23.10
2017-08-04T17:59:29.171Z,23.10
2017-08-04T18:01:57.692Z,23.10
2017-08-04T18:04:36.661Z,23.10
2017-08-04T18:07:04.576Z,23.00
2017-08-04T18:09:34.764Z,23.00
2017-08-04T18:12:03.573Z,23.00
2017-08-04T18:14:36.000Z,23.00
2017-08-04T18:19:41.202Z,23.00
2017-08-04T18:22:17.521Z,23.00
2017-08-04T18:24:46.243Z,23.00
2017-08-04T18:27:14.862Z,23.00
2017-08-04T18:29:42.497Z,22.90
2017-08-04T18:32:11.165Z,22.90
2017-08-04T18:34:38.925Z,22.90
2017-08-04T18:37:09.963Z,22.80
2017-08-04T18:39:37.604Z,22.80
2017-08-04T18:42:06.165Z,22.70
2017-08-04T18:44:40.507Z,22.60
2017-08-04T18:47:25.808Z,22.60
2017-08-04T18:52:54.849Z,22.60
2017-08-04T18:55:27.616Z,22.50
2017-08-04T18:57:55.255Z,22.40
2017-08-04T19:00:30.160Z,22.30
2017-08-04T19:03:08.316Z,22.30
2017-08-04T19:05:48.635Z,22.30
2017-08-04T19:10:59.694Z,22.20
2017-08-04T19:13:27.751Z,22.20
2017-08-04T19:16:04.363Z,22.10
2017-08-04T19:18:38.574Z,22.10
2017-08-04T19:21:35.207Z,22.00
2017-08-04T19:29:54.315Z,21.80
2017-08-04T19:37:46.507Z,21.70
2017-08-04T19:40:23.220Z,21.70
2017-08-04T19:42:50.898Z,21.70
2017-08-04T19:45:19.144Z,21.70
2017-08-04T19:47:50.747Z,21.70
2017-08-04T19:50:19.957Z,21.60
2017-08-04T19:52:55.019Z,21.50
2017-08-04T19:55:23.539Z,21.50
2017-08-04T19:57:53.227Z,21.40
2017-08-04T20:00:22.046Z,21.40
2017-08-04T20:02:49.851Z,21.30
2017-08-04T20:05:18.482Z,21.30
2017-08-04T20:07:46.652Z,21.20
2017-08-04T20:10:14.851Z,21.20
2017-08-04T20:12:42.387Z,21.20
2017-08-04T20:15:09.967Z,21.20
2017-08-04T20:17:42.328Z,21.20
2017-08-04T20:20:12.685Z,21.20
2017-08-04T20:25:25.178Z,21.00
2017-08-04T20:27:55.195Z,20.80
2017-08-04T20:30:22.748Z,20.80
2017-08-04T20:32:50.400Z,20.70
2017-08-04T20:35:18.727Z,20.60
2017-08-04T20:37:47.153Z,20.60
2017-08-04T20:40:15.541Z,20.60
2017-08-04T20:42:44.370Z,20.60
2017-08-04T20:45:13.687Z,20.60
2017-08-04T20:47:42.142Z,20.60
2017-08-04T20:50:13.736Z,20.50
2017-08-04T20:52:49.828Z,20.40
2017-08-04T20:55:20.457Z,20.40
2017-08-04T20:57:48.320Z,20.40
2017-08-04T21:00:16.541Z,20.50
2017-08-04T21:02:44.854Z,20.60
2017-08-04T21:05:14.944Z,20.70
2017-08-04T21:07:44.001Z,20.60
2017-08-04T21:10:17.490Z,20.60
2017-08-04T21:12:45.842Z,20.50
2017-08-04T21:15:14.347Z,20.40
2017-08-04T21:17:43.073Z,20.40
2017-08-04T21:20:15.260Z,20.40
2017-08-04T21:22:50.081Z,20.50
2017-08-04T21:27:57.173Z,20.60
2017-08-04T21:30:26.543Z,20.60
2017-08-04T21:33:10.727Z,20.70
2017-08-04T21:35:38.250Z,20.70
2017-08-04T21:38:06.842Z,20.70
2017-08-04T21:40:35.345Z,20.70
2017-08-04T21:43:05.632Z,20.60
2017-08-04T21:45:41.837Z,20.50
2017-08-04T21:48:10.951Z,20.30
2017-08-04T21:50:40.260Z,20.30
2017-08-04T21:53:08.642Z,20.20
2017-08-04T21:55:37.094Z,20.20
2017-08-04T21:58:08.505Z,20.20
2017-08-04T22:00:41.300Z,20.10
2017-08-04T22:03:10.585Z,20.10
2017-08-04T22:05:38.342Z,20.00
2017-08-04T22:08:08.563Z,20.00
2017-08-04T22:10:36.196Z,20.00
2017-08-04T22:13:10.587Z,20.00
2017-08-04T22:18:18.468Z,19.80
2017-08-04T22:20:47.182Z,19.80
2017-08-04T22:23:14.833Z,19.80
2017-08-04T22:25:45.139Z,19.90
2017-08-04T22:28:12.672Z,19.90
2017-08-04T22:30:40.928Z,19.90
2017-08-04T22:33:09.231Z,19.80
2017-08-04T22:35:38.622Z,19.80
2017-08-04T22:38:07.668Z,19.80
2017-08-04T22:40:36.206Z,19.80
2017-08-04T22:43:04.517Z,19.70
2017-08-04T22:45:32.211Z,19.70
2017-08-04T22:47:59.965Z,19.70
2017-08-04T22:50:28.248Z,19.70
2017-08-04T22:52:56.492Z,19.70
2017-08-04T22:55:25.276Z,19.70
2017-08-04T22:58:03.921Z,19.70
2017-08-04T23:00:33.993Z,19.80
2017-08-04T23:03:02.906Z,19.80
2017-08-04T23:05:30.508Z,19.70
2017-08-04T23:08:01.209Z,19.70
2017-08-04T23:10:29.694Z,19.70
2017-08-04T23:12:58.705Z,19.80
2017-08-04T23:15:29.139Z,19.80
2017-08-04T23:18:01.248Z,19.80
2017-08-04T23:20:29.353Z,19.70
2017-08-04T23:22:59.465Z,19.60
2017-08-04T23:25:27.066Z,19.60
2017-08-04T23:27:59.321Z,19.60
2017-08-04T23:30:30.293Z,19.60
2017-08-04T23:33:02.920Z,19.50
2017-08-04T23:35:33.724Z,19.50
2017-08-04T23:38:03.212Z,19.50
2017-08-04T23:40:34.709Z,19.40
2017-08-04T23:43:02.450Z,19.40
2017-08-04T23:45:30.056Z,19.40
2017-08-04T23:47:58.439Z,19.30
2017-08-04T23:50:26.815Z,19.30
2017-08-04T23:52:55.136Z,19.30
2017-08-04T23:58:00.545Z,19.50
